sensor_id;sensor_type;location;lat;lon;timestamp;P1;durP1;ratioP1;P2;durP2;ratioP2
48524;SDS011;34316;51.514;-0.178;2023-05-10T00:00:54;7.25;;;6.30;;
48524;SDS011;34316;51.514;-0.178;2023-05-10T00:02:55;8.05;;;6.82;;
48524;SDS011;34316;51.514;-0.178;2023-05-10T00:04:57;8.50;;;6.32;;
48524;SDS011;34316;51.514;-0.178;2023-05-10T00:06:59;7.53;;;6.68;;
48524;SDS011;34316;51.514;-0.178;2023-05-10T00:09:01;7.95;;;7.15;;
48524;SDS011;34316;51.514;-0.178;2023-05-10T00:11:02;7.70;;;6.90;;
48524;SDS011;34316;51.514;-0.178;2023-05-10T00:13:04;8.20;;;7.40;;
48524;SDS011;34316;51.514;-0.178;2023-05-10T00:15:06;7.80;;;6.90;;
48524;SDS011;34316;51.514;-0.178;2023-05-10T00:17:08;7.78;;;6.97;;
48524;SDS011;34316;51.514;-0.178;2023-05-10T00:19:10;7.88;;;7.03;;
48524;SDS011;34316;51.514;-0.178;2023-05-10T00:21:11;8.13;;;6.50;;
48524;SDS011;34316;51.514;-0.178;2023-05-10T00:23:13;6.90;;;6.30;;
48524;SDS011;34316;51.514;-0.178;2023-05-10T00:25:14;7.00;;;6.30;;
48524;SDS011;34316;51.514;-0.178;2023-05-10T00:27:16;7.47;;;6.50;;
48524;SDS011;34316;51.514;-0.178;2023-05-10T00:29:18;7.05;;;6.35;;
48524;SDS011;34316;51.514;-0.178;2023-05-10T00:31:20;7.43;;;6.72;;
48524;SDS011;34316;51.514;-0.178;2023-05-10T00:33:22;7.30;;;6.43;;
48524;SDS011;34316;51.514;-0.178;2023-05-10T00:35:24;7.35;;;6.65;;
48524;SDS011;34316;51.514;-0.178;2023-05-10T00:37:25;10.57;;;6.65;;
48524;SDS011;34316;51.514;-0.178;2023-05-10T00:39:27;7.28;;;6.57;;
48524;SDS011;34316;51.514;-0.178;2023-05-10T00:41:30;7.28;;;6.57;;
48524;SDS011;34316;51.514;-0.178;2023-05-10T00:43:34;7.70;;;6.90;;
48524;SDS011;34316;51.514;-0.178;2023-05-10T00:45:36;7.22;;;6.57;;
48524;SDS011;34316;51.514;-0.178;2023-05-10T00:47:39;7.40;;;6.70;;
48524;SDS011;34316;51.514;-0.178;2023-05-10T00:49:41;7.90;;;6.50;;
48524;SDS011;34316;51.514;-0.178;2023-05-10T00:51:42;8.02;;;7.28;;
48524;SDS011;34316;51.514;-0.178;2023-05-10T00:53:45;8.55;;;7.75;;
48524;SDS011;34316;51.514;-0.178;2023-05-10T00:55:47;9.82;;;7.03;;
48524;SDS011;34316;51.514;-0.178;2023-05-10T00:57:49;8.60;;;7.80;;
48524;SDS011;34316;51.514;-0.178;2023-05-10T00:59:51;8.57;;;7.68;;
48524;SDS011;34316;51.514;-0.178;2023-05-10T01:01:53;7.95;;;7.25;;
48524;SDS011;34316;51.514;-0.178;2023-05-10T01:03:55;8.77;;;7.97;;
48524;SDS011;34316;51.514;-0.178;2023-05-10T01:05:57;8.95;;;8.07;;
48524;SDS011;34316;51.514;-0.178;2023-05-10T01:07:58;7.80;;;7.10;;
48524;SDS011;34316;51.514;-0.178;2023-05-10T01:10:00;7.70;;;6.90;;
48524;SDS011;34316;51.514;-0.178;2023-05-10T01:12:02;9.52;;;7.68;;
48524;SDS011;34316;51.514;-0.178;2023-05-10T01:14:08;8.85;;;7.95;;
48524;SDS011;34316;51.514;-0.178;2023-05-10T01:16:09;7.80;;;7.10;;
48524;SDS011;34316;51.514;-0.178;2023-05-10T01:18:11;8.85;;;7.93;;
48524;SDS011;34316;51.514;-0.178;2023-05-10T01:20:13;9.27;;;8.27;;
48524;SDS011;34316;51.514;-0.178;2023-05-10T01:29:30;8.60;;;7.80;;
48524;SDS011;34316;51.514;-0.178;2023-05-10T01:34:10;9.10;;;8.20;;
48524;SDS011;34316;51.514;-0.178;2023-05-10T01:38:59;8.73;;;7.82;;
48524;SDS011;34316;51.514;-0.178;2023-05-10T01:43:31;7.80;;;6.95;;
48524;SDS011;34316;51.514;-0.178;2023-05-10T01:46:09;7.47;;;6.68;;
48524;SDS011;34316;51.514;-0.178;2023-05-10T01:48:11;7.20;;;6.55;;
48524;SDS011;34316;51.514;-0.178;2023-05-10T01:50:17;7.40;;;6.65;;
48524;SDS011;34316;51.514;-0.178;2023-05-10T01:52:22;6.97;;;5.85;;
48524;SDS011;34316;51.514;-0.178;2023-05-10T01:54:28;6.47;;;5.78;;
48524;SDS011;34316;51.514;-0.178;2023-05-10T01:56:30;7.00;;;6.32;;
48524;SDS011;34316;51.514;-0.178;2023-05-10T01:58:33;6.53;;;5.25;;
48524;SDS011;34316;51.514;-0.178;2023-05-10T02:00:36;6.82;;;5.85;;
48524;SDS011;34316;51.514;-0.178;2023-05-10T02:02:39;6.35;;;5.68;;
48524;SDS011;34316;51.514;-0.178;2023-05-10T02:04:43;5.55;;;5.05;;
48524;SDS011;34316;51.514;-0.178;2023-05-10T02:06:46;6.18;;;4.78;;
48524;SDS011;34316;51.514;-0.178;2023-05-10T02:08:49;6.53;;;5.93;;
48524;SDS011;34316;51.514;-0.178;2023-05-10T02:10:52;5.15;;;4.68;;
48524;SDS011;34316;51.514;-0.178;2023-05-10T02:12:56;6.40;;;4.97;;
48524;SDS011;34316;51.514;-0.178;2023-05-10T02:15:00;5.32;;;4.82;;
48524;SDS011;34316;51.514;-0.178;2023-05-10T02:17:04;5.32;;;4.82;;
48524;SDS011;34316;51.514;-0.178;2023-05-10T02:19:06;5.20;;;4.70;;
48524;SDS011;34316;51.514;-0.178;2023-05-10T02:21:10;5.82;;;5.22;;
48524;SDS011;34316;51.514;-0.178;2023-05-10T02:23:12;6.18;;;4.72;;
48524;SDS011;34316;51.514;-0.178;2023-05-10T02:25:14;5.55;;;5.05;;
48524;SDS011;34316;51.514;-0.178;2023-05-10T02:27:17;6.70;;;4.97;;
48524;SDS011;34316;51.514;-0.178;2023-05-10T02:29:19;6.25;;;4.75;;
48524;SDS011;34316;51.514;-0.178;2023-05-10T02:31:21;7.13;;;4.78;;
48524;SDS011;34316;51.514;-0.178;2023-05-10T02:33:23;5.50;;;4.80;;
48524;SDS011;34316;51.514;-0.178;2023-05-10T02:35:25;7.18;;;5.55;;
48524;SDS011;34316;51.514;-0.178;2023-05-10T02:37:27;10.73;;;5.47;;
48524;SDS011;34316;51.514;-0.178;2023-05-10T02:39:29;6.72;;;5.55;;
48524;SDS011;34316;51.514;-0.178;2023-05-10T02:41:32;6.57;;;4.78;;
48524;SDS011;34316;51.514;-0.178;2023-05-10T02:43:34;6.78;;;5.50;;
48524;SDS011;34316;51.514;-0.178;2023-05-10T02:45:36;9.20;;;5.28;;
48524;SDS011;34316;51.514;-0.178;2023-05-10T02:47:40;6.70;;;5.22;;
48524;SDS011;34316;51.514;-0.178;2023-05-10T02:49:42;6.72;;;5.57;;
48524;SDS011;34316;51.514;-0.178;2023-05-10T02:51:44;13.55;;;5.32;;
48524;SDS011;34316;51.514;-0.178;2023-05-10T02:53:50;6.65;;;5.53;;
48524;SDS011;34316;51.514;-0.178;2023-05-10T02:55:55;6.50;;;5.30;;
48524;SDS011;34316;51.514;-0.178;2023-05-10T02:58:00;8.35;;;5.72;;
48524;SDS011;34316;51.514;-0.178;2023-05-10T03:00:02;5.95;;;5.22;;
48524;SDS011;34316;51.514;-0.178;2023-05-10T03:02:05;9.45;;;5.45;;
48524;SDS011;34316;51.514;-0.178;2023-05-10T03:04:06;8.02;;;6.20;;
48524;SDS011;34316;51.514;-0.178;2023-05-10T03:06:08;6.90;;;6.20;;
48524;SDS011;34316;51.514;-0.178;2023-05-10T03:08:10;8.15;;;6.45;;
48524;SDS011;34316;51.514;-0.178;2023-05-10T03:10:12;7.70;;;5.80;;
48524;SDS011;34316;51.514;-0.178;2023-05-10T03:12:27;6.93;;;6.20;;
48524;SDS011;34316;51.514;-0.178;2023-05-10T03:17:14;7.32;;;5.95;;
48524;SDS011;34316;51.514;-0.178;2023-05-10T03:19:26;6.25;;;5.65;;
48524;SDS011;34316;51.514;-0.178;2023-05-10T03:21:30;7.47;;;6.15;;
48524;SDS011;34316;51.514;-0.178;2023-05-10T03:23:53;8.52;;;5.57;;
48524;SDS011;34316;51.514;-0.178;2023-05-10T03:26:03;7.00;;;5.72;;
48524;SDS011;34316;51.514;-0.178;2023-05-10T03:28:06;6.30;;;5.65;;
48524;SDS011;34316;51.514;-0.178;2023-05-10T03:30:08;8.18;;;5.78;;
48524;SDS011;34316;51.514;-0.178;2023-05-10T03:34:13;8.88;;;5.70;;
48524;SDS011;34316;51.514;-0.178;2023-05-10T03:36:15;10.43;;;5.35;;
48524;SDS011;34316;51.514;-0.178;2023-05-10T03:38:17;7.43;;;5.50;;
48524;SDS011;34316;51.514;-0.178;2023-05-10T03:40:18;7.60;;;5.53;;
48524;SDS011;34316;51.514;-0.178;2023-05-10T03:42:20;6.28;;;5.68;;
48524;SDS011;34316;51.514;-0.178;2023-05-10T03:44:22;6.95;;;5.63;;
48524;SDS011;34316;51.514;-0.178;2023-05-10T03:46:23;6.85;;;5.70;;
48524;SDS011;34316;51.514;-0.178;2023-05-10T03:48:25;7.43;;;5.60;;
48524;SDS011;34316;51.514;-0.178;2023-05-10T03:50:27;7.22;;;5.68;;
48524;SDS011;34316;51.514;-0.178;2023-05-10T03:52:28;7.25;;;5.65;;
48524;SDS011;34316;51.514;-0.178;2023-05-10T03:54:30;6.65;;;5.93;;
48524;SDS011;34316;51.514;-0.178;2023-05-10T03:56:31;6.38;;;5.43;;
48524;SDS011;34316;51.514;-0.178;2023-05-10T03:58:33;7.03;;;5.40;;
48524;SDS011;34316;51.514;-0.178;2023-05-10T04:00:35;9.32;;;5.40;;
48524;SDS011;34316;51.514;-0.178;2023-05-10T04:02:36;7.18;;;4.78;;
48524;SDS011;34316;51.514;-0.178;2023-05-10T04:04:38;8.38;;;5.85;;
48524;SDS011;34316;51.514;-0.178;2023-05-10T04:06:40;6.65;;;5.45;;
48524;SDS011;34316;51.514;-0.178;2023-05-10T04:08:42;6.07;;;5.15;;
48524;SDS011;34316;51.514;-0.178;2023-05-10T04:10:43;7.95;;;5.93;;
48524;SDS011;34316;51.514;-0.178;2023-05-10T04:12:45;7.22;;;5.40;;
48524;SDS011;34316;51.514;-0.178;2023-05-10T04:14:47;6.10;;;5.38;;
48524;SDS011;34316;51.514;-0.178;2023-05-10T04:16:48;6.32;;;5.60;;
48524;SDS011;34316;51.514;-0.178;2023-05-10T04:18:50;7.30;;;6.28;;
48524;SDS011;34316;51.514;-0.178;2023-05-10T04:20:52;6.15;;;5.38;;
48524;SDS011;34316;51.514;-0.178;2023-05-10T04:22:53;6.70;;;5.28;;
48524;SDS011;34316;51.514;-0.178;2023-05-10T04:24:55;6.55;;;5.40;;
48524;SDS011;34316;51.514;-0.178;2023-05-10T04:26:56;6.28;;;5.18;;
48524;SDS011;34316;51.514;-0.178;2023-05-10T04:28:58;9.18;;;6.18;;
48524;SDS011;34316;51.514;-0.178;2023-05-10T04:31:00;8.82;;;5.53;;
48524;SDS011;34316;51.514;-0.178;2023-05-10T04:33:05;8.05;;;5.43;;
48524;SDS011;34316;51.514;-0.178;2023-05-10T04:35:07;8.50;;;5.22;;
48524;SDS011;34316;51.514;-0.178;2023-05-10T04:39:12;6.18;;;5.47;;
48524;SDS011;34316;51.514;-0.178;2023-05-10T04:41:14;7.95;;;5.68;;
48524;SDS011;34316;51.514;-0.178;2023-05-10T04:43:16;7.10;;;5.70;;
48524;SDS011;34316;51.514;-0.178;2023-05-10T04:45:18;7.80;;;5.40;;
48524;SDS011;34316;51.514;-0.178;2023-05-10T04:47:20;8.73;;;5.90;;
48524;SDS011;34316;51.514;-0.178;2023-05-10T04:49:21;6.78;;;6.07;;
48524;SDS011;34316;51.514;-0.178;2023-05-10T04:51:23;7.35;;;5.47;;
48524;SDS011;34316;51.514;-0.178;2023-05-10T04:53:24;7.60;;;6.53;;
48524;SDS011;34316;51.514;-0.178;2023-05-10T04:55:26;8.02;;;6.30;;
48524;SDS011;34316;51.514;-0.178;2023-05-10T04:57:28;7.68;;;6.65;;
48524;SDS011;34316;51.514;-0.178;2023-05-10T04:59:30;7.70;;;6.55;;
48524;SDS011;34316;51.514;-0.178;2023-05-10T05:01:31;6.88;;;6.13;;
48524;SDS011;34316;51.514;-0.178;2023-05-10T05:03:33;7.55;;;6.75;;
48524;SDS011;34316;51.514;-0.178;2023-05-10T05:05:35;7.63;;;6.82;;
48524;SDS011;34316;51.514;-0.178;2023-05-10T05:07:37;7.80;;;6.72;;
48524;SDS011;34316;51.514;-0.178;2023-05-10T05:09:39;8.23;;;6.63;;
48524;SDS011;34316;51.514;-0.178;2023-05-10T05:11:41;10.50;;;6.40;;
48524;SDS011;34316;51.514;-0.178;2023-05-10T05:13:42;7.78;;;5.78;;
48524;SDS011;34316;51.514;-0.178;2023-05-10T05:15:44;7.97;;;6.47;;
48524;SDS011;34316;51.514;-0.178;2023-05-10T05:17:46;8.48;;;6.70;;
48524;SDS011;34316;51.514;-0.178;2023-05-10T05:19:48;7.20;;;6.15;;
48524;SDS011;34316;51.514;-0.178;2023-05-10T05:21:49;11.20;;;6.68;;
48524;SDS011;34316;51.514;-0.178;2023-05-10T05:23:51;8.55;;;6.90;;
48524;SDS011;34316;51.514;-0.178;2023-05-10T05:25:53;8.20;;;6.80;;
48524;SDS011;34316;51.514;-0.178;2023-05-10T05:27:54;8.40;;;6.80;;
48524;SDS011;34316;51.514;-0.178;2023-05-10T05:29:56;9.85;;;6.95;;
48524;SDS011;34316;51.514;-0.178;2023-05-10T05:31:58;8.70;;;7.10;;
48524;SDS011;34316;51.514;-0.178;2023-05-10T05:33:59;8.60;;;6.95;;
48524;SDS011;34316;51.514;-0.178;2023-05-10T05:36:02;10.05;;;7.97;;
48524;SDS011;34316;51.514;-0.178;2023-05-10T05:38:04;9.35;;;7.90;;
48524;SDS011;34316;51.514;-0.178;2023-05-10T05:40:07;9.32;;;7.53;;
48524;SDS011;34316;51.514;-0.178;2023-05-10T05:42:09;10.00;;;8.05;;
48524;SDS011;34316;51.514;-0.178;2023-05-10T05:44:11;10.25;;;7.35;;
48524;SDS011;34316;51.514;-0.178;2023-05-10T05:46:12;8.32;;;7.50;;
48524;SDS011;34316;51.514;-0.178;2023-05-10T05:48:14;8.55;;;7.65;;
48524;SDS011;34316;51.514;-0.178;2023-05-10T05:50:16;9.07;;;7.95;;
48524;SDS011;34316;51.514;-0.178;2023-05-10T05:52:17;12.30;;;8.88;;
48524;SDS011;34316;51.514;-0.178;2023-05-10T05:54:19;8.30;;;7.38;;
48524;SDS011;34316;51.514;-0.178;2023-05-10T05:56:21;11.77;;;8.63;;
48524;SDS011;34316;51.514;-0.178;2023-05-10T05:58:25;10.82;;;8.38;;
48524;SDS011;34316;51.514;-0.178;2023-05-10T06:00:28;10.70;;;8.73;;
48524;SDS011;34316;51.514;-0.178;2023-05-10T06:02:29;9.55;;;7.80;;
48524;SDS011;34316;51.514;-0.178;2023-05-10T06:04:31;11.68;;;8.80;;
48524;SDS011;34316;51.514;-0.178;2023-05-10T06:06:33;12.60;;;9.00;;
48524;SDS011;34316;51.514;-0.178;2023-05-10T06:08:35;10.52;;;8.57;;
48524;SDS011;34316;51.514;-0.178;2023-05-10T06:10:36;11.35;;;8.88;;
48524;SDS011;34316;51.514;-0.178;2023-05-10T06:12:38;11.52;;;9.45;;
48524;SDS011;34316;51.514;-0.178;2023-05-10T06:14:40;10.50;;;8.93;;
48524;SDS011;34316;51.514;-0.178;2023-05-10T06:16:41;12.45;;;9.85;;
48524;SDS011;34316;51.514;-0.178;2023-05-10T06:18:43;12.13;;;9.40;;
48524;SDS011;34316;51.514;-0.178;2023-05-10T06:20:45;14.07;;;9.88;;
48524;SDS011;34316;51.514;-0.178;2023-05-10T06:22:46;10.95;;;9.48;;
48524;SDS011;34316;51.514;-0.178;2023-05-10T06:24:48;14.07;;;9.48;;
48524;SDS011;34316;51.514;-0.178;2023-05-10T06:26:50;13.07;;;9.45;;
48524;SDS011;34316;51.514;-0.178;2023-05-10T06:28:52;13.43;;;11.43;;
48524;SDS011;34316;51.514;-0.178;2023-05-10T06:30:54;11.77;;;10.07;;
48524;SDS011;34316;51.514;-0.178;2023-05-10T06:32:55;13.07;;;9.88;;
48524;SDS011;34316;51.514;-0.178;2023-05-10T06:34:57;10.70;;;9.60;;
48524;SDS011;34316;51.514;-0.178;2023-05-10T06:36:58;13.27;;;10.02;;
48524;SDS011;34316;51.514;-0.178;2023-05-10T06:39:00;10.48;;;9.32;;
48524;SDS011;34316;51.514;-0.178;2023-05-10T06:41:02;11.85;;;9.25;;
48524;SDS011;34316;51.514;-0.178;2023-05-10T06:43:04;15.27;;;10.25;;
48524;SDS011;34316;51.514;-0.178;2023-05-10T06:45:06;12.52;;;10.07;;
48524;SDS011;34316;51.514;-0.178;2023-05-10T06:47:08;11.75;;;9.73;;
48524;SDS011;34316;51.514;-0.178;2023-05-10T06:49:10;12.65;;;9.52;;
48524;SDS011;34316;51.514;-0.178;2023-05-10T06:51:11;14.00;;;9.00;;
48524;SDS011;34316;51.514;-0.178;2023-05-10T06:53:13;15.73;;;9.65;;
48524;SDS011;34316;51.514;-0.178;2023-05-10T06:55:15;11.82;;;10.10;;
48524;SDS011;34316;51.514;-0.178;2023-05-10T06:57:17;10.20;;;8.68;;
48524;SDS011;34316;51.514;-0.178;2023-05-10T06:59:32;14.55;;;9.77;;
48524;SDS011;34316;51.514;-0.178;2023-05-10T07:01:33;14.40;;;9.77;;
48524;SDS011;34316;51.514;-0.178;2023-05-10T07:03:35;12.45;;;10.10;;
48524;SDS011;34316;51.514;-0.178;2023-05-10T07:05:37;11.80;;;9.35;;
48524;SDS011;34316;51.514;-0.178;2023-05-10T07:07:39;11.82;;;9.93;;
48524;SDS011;34316;51.514;-0.178;2023-05-10T07:09:40;10.75;;;9.60;;
48524;SDS011;34316;51.514;-0.178;2023-05-10T07:11:43;11.45;;;9.80;;
48524;SDS011;34316;51.514;-0.178;2023-05-10T07:13:44;13.13;;;9.35;;
48524;SDS011;34316;51.514;-0.178;2023-05-10T07:15:47;12.60;;;10.05;;
48524;SDS011;34316;51.514;-0.178;2023-05-10T07:17:49;12.82;;;9.68;;
48524;SDS011;34316;51.514;-0.178;2023-05-10T07:19:51;11.90;;;9.45;;
48524;SDS011;34316;51.514;-0.178;2023-05-10T07:21:53;12.35;;;10.10;;
48524;SDS011;34316;51.514;-0.178;2023-05-10T07:23:54;13.25;;;9.05;;
48524;SDS011;34316;51.514;-0.178;2023-05-10T07:25:56;11.38;;;9.57;;
48524;SDS011;34316;51.514;-0.178;2023-05-10T07:27:58;10.02;;;8.88;;
48524;SDS011;34316;51.514;-0.178;2023-05-10T07:30:00;11.40;;;9.82;;
48524;SDS011;34316;51.514;-0.178;2023-05-10T07:32:02;10.65;;;8.98;;
48524;SDS011;34316;51.514;-0.178;2023-05-10T07:34:04;11.18;;;8.80;;
48524;SDS011;34316;51.514;-0.178;2023-05-10T07:36:06;12.43;;;10.30;;
48524;SDS011;34316;51.514;-0.178;2023-05-10T07:38:07;12.65;;;9.82;;
48524;SDS011;34316;51.514;-0.178;2023-05-10T07:40:09;10.77;;;9.13;;
48524;SDS011;34316;51.514;-0.178;2023-05-10T07:42:11;14.07;;;10.32;;
48524;SDS011;34316;51.514;-0.178;2023-05-10T07:44:13;11.00;;;8.75;;
48524;SDS011;34316;51.514;-0.178;2023-05-10T07:46:14;12.45;;;9.98;;
48524;SDS011;34316;51.514;-0.178;2023-05-10T07:48:16;12.82;;;10.80;;
48524;SDS011;34316;51.514;-0.178;2023-05-10T07:50:18;11.15;;;9.95;;
48524;SDS011;34316;51.514;-0.178;2023-05-10T07:52:19;11.63;;;9.88;;
48524;SDS011;34316;51.514;-0.178;2023-05-10T07:54:23;12.77;;;10.20;;
48524;SDS011;34316;51.514;-0.178;2023-05-10T07:56:25;12.48;;;10.05;;
48524;SDS011;34316;51.514;-0.178;2023-05-10T07:58:30;14.02;;;10.20;;
48524;SDS011;34316;51.514;-0.178;2023-05-10T08:00:32;13.50;;;11.35;;
48524;SDS011;34316;51.514;-0.178;2023-05-10T08:02:34;21.33;;;10.93;;
48524;SDS011;34316;51.514;-0.178;2023-05-10T08:04:36;11.88;;;10.65;;
48524;SDS011;34316;51.514;-0.178;2023-05-10T08:06:39;14.25;;;11.77;;
48524;SDS011;34316;51.514;-0.178;2023-05-10T08:08:41;12.48;;;9.77;;
48524;SDS011;34316;51.514;-0.178;2023-05-10T08:10:43;12.05;;;10.80;;
48524;SDS011;34316;51.514;-0.178;2023-05-10T08:12:45;14.60;;;10.55;;
48524;SDS011;34316;51.514;-0.178;2023-05-10T08:14:46;13.32;;;11.30;;
48524;SDS011;34316;51.514;-0.178;2023-05-10T08:16:48;12.13;;;10.85;;
48524;SDS011;34316;51.514;-0.178;2023-05-10T08:18:50;11.60;;;9.77;;
48524;SDS011;34316;51.514;-0.178;2023-05-10T08:20:52;11.75;;;9.35;;
48524;SDS011;34316;51.514;-0.178;2023-05-10T08:22:53;13.10;;;10.32;;
48524;SDS011;34316;51.514;-0.178;2023-05-10T08:24:55;16.25;;;11.23;;
48524;SDS011;34316;51.514;-0.178;2023-05-10T08:26:57;12.38;;;9.57;;
48524;SDS011;34316;51.514;-0.178;2023-05-10T08:28:58;18.48;;;10.45;;
48524;SDS011;34316;51.514;-0.178;2023-05-10T08:31:00;15.90;;;10.65;;
48524;SDS011;34316;51.514;-0.178;2023-05-10T08:33:01;12.05;;;10.57;;
48524;SDS011;34316;51.514;-0.178;2023-05-10T08:35:03;13.57;;;9.90;;
48524;SDS011;34316;51.514;-0.178;2023-05-10T08:37:06;11.82;;;10.48;;
48524;SDS011;34316;51.514;-0.178;2023-05-10T08:39:08;13.35;;;10.02;;
48524;SDS011;34316;51.514;-0.178;2023-05-10T08:41:27;12.88;;;10.68;;
48524;SDS011;34316;51.514;-0.178;2023-05-10T08:43:29;18.15;;;11.32;;
48524;SDS011;34316;51.514;-0.178;2023-05-10T08:45:32;11.88;;;10.50;;
48524;SDS011;34316;51.514;-0.178;2023-05-10T08:47:36;13.57;;;10.15;;
48524;SDS011;34316;51.514;-0.178;2023-05-10T08:49:39;12.20;;;10.93;;
48524;SDS011;34316;51.514;-0.178;2023-05-10T08:51:42;12.18;;;9.95;;
48524;SDS011;34316;51.514;-0.178;2023-05-10T08:53:46;12.68;;;10.20;;
48524;SDS011;34316;51.514;-0.178;2023-05-10T08:55:47;11.25;;;9.98;;
48524;SDS011;34316;51.514;-0.178;2023-05-10T08:57:49;10.43;;;9.32;;
48524;SDS011;34316;51.514;-0.178;2023-05-10T08:59:51;12.00;;;10.80;;
48524;SDS011;34316;51.514;-0.178;2023-05-10T09:01:53;12.27;;;9.77;;
48524;SDS011;34316;51.514;-0.178;2023-05-10T09:03:55;13.43;;;9.68;;
48524;SDS011;34316;51.514;-0.178;2023-05-10T09:05:57;11.65;;;10.40;;
48524;SDS011;34316;51.514;-0.178;2023-05-10T09:07:58;12.77;;;9.80;;
48524;SDS011;34316;51.514;-0.178;2023-05-10T09:10:02;11.30;;;9.60;;
48524;SDS011;34316;51.514;-0.178;2023-05-10T09:12:03;11.25;;;10.00;;
48524;SDS011;34316;51.514;-0.178;2023-05-10T09:14:05;15.18;;;11.32;;
48524;SDS011;34316;51.514;-0.178;2023-05-10T09:16:07;14.10;;;10.80;;
48524;SDS011;34316;51.514;-0.178;2023-05-10T09:20:23;11.60;;;10.45;;
48524;SDS011;34316;51.514;-0.178;2023-05-10T09:22:25;16.15;;;11.05;;
48524;SDS011;34316;51.514;-0.178;2023-05-10T09:24:27;14.30;;;11.45;;
48524;SDS011;34316;51.514;-0.178;2023-05-10T09:26:30;15.52;;;11.32;;
48524;SDS011;34316;51.514;-0.178;2023-05-10T09:28:32;14.82;;;11.20;;
48524;SDS011;34316;51.514;-0.178;2023-05-10T09:30:53;18.80;;;11.07;;
48524;SDS011;34316;51.514;-0.178;2023-05-10T09:32:57;15.80;;;11.35;;
48524;SDS011;34316;51.514;-0.178;2023-05-10T09:35:05;23.92;;;11.43;;
48524;SDS011;34316;51.514;-0.178;2023-05-10T09:37:10;12.40;;;11.10;;
48524;SDS011;34316;51.514;-0.178;2023-05-10T09:39:12;12.35;;;11.00;;
48524;SDS011;34316;51.514;-0.178;2023-05-10T09:41:21;17.55;;;11.50;;
48524;SDS011;34316;51.514;-0.178;2023-05-10T09:43:23;12.30;;;11.00;;
48524;SDS011;34316;51.514;-0.178;2023-05-10T09:45:26;17.33;;;10.80;;
48524;SDS011;34316;51.514;-0.178;2023-05-10T09:47:28;11.57;;;10.30;;
48524;SDS011;34316;51.514;-0.178;2023-05-10T09:49:31;12.48;;;10.70;;
48524;SDS011;34316;51.514;-0.178;2023-05-10T09:51:34;12.07;;;10.00;;
48524;SDS011;34316;51.514;-0.178;2023-05-10T09:53:37;11.23;;;9.90;;
48524;SDS011;34316;51.514;-0.178;2023-05-10T09:55:42;11.93;;;10.73;;
48524;SDS011;34316;51.514;-0.178;2023-05-10T09:57:48;14.98;;;11.40;;
48524;SDS011;34316;51.514;-0.178;2023-05-10T09:59:50;18.48;;;11.60;;
48524;SDS011;34316;51.514;-0.178;2023-05-10T10:01:52;12.68;;;11.38;;
48524;SDS011;34316;51.514;-0.178;2023-05-10T10:03:55;12.63;;;10.83;;
48524;SDS011;34316;51.514;-0.178;2023-05-10T10:08:02;13.27;;;10.25;;
48524;SDS011;34316;51.514;-0.178;2023-05-10T10:10:04;12.68;;;10.88;;
48524;SDS011;34316;51.514;-0.178;2023-05-10T10:12:07;12.68;;;11.38;;
48524;SDS011;34316;51.514;-0.178;2023-05-10T10:14:09;14.18;;;10.70;;
48524;SDS011;34316;51.514;-0.178;2023-05-10T10:16:12;15.88;;;10.05;;
48524;SDS011;34316;51.514;-0.178;2023-05-10T10:18:14;11.80;;;9.02;;
48524;SDS011;34316;51.514;-0.178;2023-05-10T10:20:17;14.63;;;10.93;;
48524;SDS011;34316;51.514;-0.178;2023-05-10T10:22:20;13.57;;;10.70;;
48524;SDS011;34316;51.514;-0.178;2023-05-10T10:24:21;18.52;;;10.13;;
48524;SDS011;34316;51.514;-0.178;2023-05-10T10:26:23;11.45;;;9.93;;
48524;SDS011;34316;51.514;-0.178;2023-05-10T10:28:36;13.80;;;9.63;;
48524;SDS011;34316;51.514;-0.178;2023-05-10T10:35:31;13.13;;;10.57;;
48524;SDS011;34316;51.514;-0.178;2023-05-10T10:37:45;11.82;;;9.15;;
48524;SDS011;34316;51.514;-0.178;2023-05-10T10:39:48;14.50;;;10.05;;
48524;SDS011;34316;51.514;-0.178;2023-05-10T10:41:52;12.95;;;9.70;;
48524;SDS011;34316;51.514;-0.178;2023-05-10T10:46:25;14.30;;;9.40;;
48524;SDS011;34316;51.514;-0.178;2023-05-10T10:48:27;15.45;;;9.18;;
48524;SDS011;34316;51.514;-0.178;2023-05-10T10:50:28;10.35;;;9.13;;
48524;SDS011;34316;51.514;-0.178;2023-05-10T10:52:34;10.85;;;8.98;;
48524;SDS011;34316;51.514;-0.178;2023-05-10T10:54:36;12.68;;;8.07;;
48524;SDS011;34316;51.514;-0.178;2023-05-10T10:56:37;9.75;;;7.50;;
48524;SDS011;34316;51.514;-0.178;2023-05-10T10:58:39;10.77;;;7.88;;
48524;SDS011;34316;51.514;-0.178;2023-05-10T11:00:41;10.18;;;9.00;;
48524;SDS011;34316;51.514;-0.178;2023-05-10T11:02:43;10.75;;;8.10;;
48524;SDS011;34316;51.514;-0.178;2023-05-10T11:04:52;13.65;;;8.35;;
48524;SDS011;34316;51.514;-0.178;2023-05-10T11:07:12;11.45;;;8.02;;
48524;SDS011;34316;51.514;-0.178;2023-05-10T11:09:19;9.98;;;8.98;;
48524;SDS011;34316;51.514;-0.178;2023-05-10T11:11:21;14.40;;;9.20;;
48524;SDS011;34316;51.514;-0.178;2023-05-10T11:13:27;9.70;;;8.68;;
48524;SDS011;34316;51.514;-0.178;2023-05-10T11:15:33;11.80;;;8.07;;
48524;SDS011;34316;51.514;-0.178;2023-05-10T11:17:35;10.45;;;8.10;;
48524;SDS011;34316;51.514;-0.178;2023-05-10T11:19:37;13.00;;;9.00;;
48524;SDS011;34316;51.514;-0.178;2023-05-10T11:23:52;9.13;;;7.88;;
48524;SDS011;34316;51.514;-0.178;2023-05-10T11:25:59;11.38;;;7.93;;
48524;SDS011;34316;51.514;-0.178;2023-05-10T11:28:01;9.90;;;8.23;;
48524;SDS011;34316;51.514;-0.178;2023-05-10T11:30:05;10.32;;;7.43;;
48524;SDS011;34316;51.514;-0.178;2023-05-10T11:34:09;10.35;;;9.20;;
48524;SDS011;34316;51.514;-0.178;2023-05-10T11:36:14;9.02;;;8.10;;
48524;SDS011;34316;51.514;-0.178;2023-05-10T11:38:20;10.27;;;8.38;;
48524;SDS011;34316;51.514;-0.178;2023-05-10T11:40:22;13.32;;;7.40;;
48524;SDS011;34316;51.514;-0.178;2023-05-10T11:42:26;11.00;;;8.02;;
48524;SDS011;34316;51.514;-0.178;2023-05-10T11:44:29;12.68;;;7.93;;
48524;SDS011;34316;51.514;-0.178;2023-05-10T11:48:34;9.88;;;8.10;;
48524;SDS011;34316;51.514;-0.178;2023-05-10T11:50:36;15.30;;;8.27;;
48524;SDS011;34316;51.514;-0.178;2023-05-10T11:52:38;13.48;;;7.95;;
48524;SDS011;34316;51.514;-0.178;2023-05-10T11:54:55;13.00;;;7.85;;
48524;SDS011;34316;51.514;-0.178;2023-05-10T11:56:56;13.35;;;7.47;;
48524;SDS011;34316;51.514;-0.178;2023-05-10T11:58:58;12.23;;;7.85;;
48524;SDS011;34316;51.514;-0.178;2023-05-10T12:01:01;13.13;;;7.73;;
48524;SDS011;34316;51.514;-0.178;2023-05-10T12:03:03;9.48;;;7.68;;
48524;SDS011;34316;51.514;-0.178;2023-05-10T12:05:05;13.27;;;7.97;;
48524;SDS011;34316;51.514;-0.178;2023-05-10T12:07:08;9.32;;;7.57;;
48524;SDS011;34316;51.514;-0.178;2023-05-10T12:09:10;10.20;;;7.95;;
48524;SDS011;34316;51.514;-0.178;2023-05-10T12:11:12;14.27;;;8.45;;
48524;SDS011;34316;51.514;-0.178;2023-05-10T12:13:18;10.10;;;8.65;;
48524;SDS011;34316;51.514;-0.178;2023-05-10T12:15:22;15.20;;;8.27;;
48524;SDS011;34316;51.514;-0.178;2023-05-10T12:17:28;11.98;;;8.32;;
48524;SDS011;34316;51.514;-0.178;2023-05-10T12:19:37;11.18;;;9.15;;
48524;SDS011;34316;51.514;-0.178;2023-05-10T12:21:39;9.13;;;8.13;;
48524;SDS011;34316;51.514;-0.178;2023-05-10T12:23:43;11.50;;;8.43;;
48524;SDS011;34316;51.514;-0.178;2023-05-10T12:25:47;10.63;;;9.27;;
48524;SDS011;34316;51.514;-0.178;2023-05-10T12:27:52;10.32;;;8.55;;
48524;SDS011;34316;51.514;-0.178;2023-05-10T12:29:59;12.23;;;9.20;;
48524;SDS011;34316;51.514;-0.178;2023-05-10T12:32:01;12.10;;;9.02;;
48524;SDS011;34316;51.514;-0.178;2023-05-10T12:34:03;12.48;;;9.18;;
48524;SDS011;34316;51.514;-0.178;2023-05-10T12:36:05;11.25;;;8.93;;
48524;SDS011;34316;51.514;-0.178;2023-05-10T12:40:30;16.17;;;10.02;;
48524;SDS011;34316;51.514;-0.178;2023-05-10T12:42:32;10.82;;;9.48;;
48524;SDS011;34316;51.514;-0.178;2023-05-10T12:44:33;11.68;;;9.88;;